Big Sandy, Montana
Current Conditions -  °F | °C
As of 10:53 PM on Thursday 30 Oct 2014 (Local Time) from KHVR Reporting Station
Clear Clear  
Wind Chill: -2°   Ceiling: Unl
Heat Index:   Visibility: 10mi
Dew Point:   Wind: 16mph
Humidity: 86%   Direction: 60°ENE
Pressure: 30.11"   Gusts: 25mph
Location:  48.18°N, 110.11°W
Report Text: KHVR 310453Z AUTO 06014G22KT 10SM CLR 03/01 A3011 RMK AO2 PK WND 08026/0404 SLP220 T00280006 $
Loading
Personal Weather Stations






























Interactive Weather Map
Tropical Storm Tracking
New forecast layout! Learn more

10-Day Weather Forecast

Advertisements
Track Severe Weather on mobile